sensor_id;sensor_type;location;lat;lon;timestamp;P1;durP1;ratioP1;P2;durP2;ratioP2
6207;SDS011;3137;51.550;7.060;2023-04-01T00:01:01;4.20;;;1.83;;
6207;SDS011;3137;51.550;7.060;2023-04-01T00:03:28;2.47;;;2.37;;
6207;SDS011;3137;51.550;7.060;2023-04-01T00:05:57;3.93;;;1.60;;
6207;SDS011;3137;51.550;7.060;2023-04-01T00:08:25;2.83;;;2.17;;
6207;SDS011;3137;51.550;7.060;2023-04-01T00:10:52;3.70;;;2.30;;
6207;SDS011;3137;51.550;7.060;2023-04-01T00:13:19;1.97;;;1.97;;
6207;SDS011;3137;51.550;7.060;2023-04-01T00:15:47;1.60;;;1.60;;
6207;SDS011;3137;51.550;7.060;2023-04-01T00:18:14;4.00;;;1.63;;
6207;SDS011;3137;51.550;7.060;2023-04-01T00:20:48;1.80;;;1.77;;
6207;SDS011;3137;51.550;7.060;2023-04-01T00:23:17;2.27;;;2.10;;
6207;SDS011;3137;51.550;7.060;2023-04-01T00:25:45;1.80;;;1.73;;
6207;SDS011;3137;51.550;7.060;2023-04-01T00:28:14;2.07;;;1.73;;
6207;SDS011;3137;51.550;7.060;2023-04-01T00:30:45;3.47;;;2.00;;
6207;SDS011;3137;51.550;7.060;2023-04-01T00:33:11;3.80;;;2.27;;
6207;SDS011;3137;51.550;7.060;2023-04-01T00:35:38;2.80;;;2.13;;
6207;SDS011;3137;51.550;7.060;2023-04-01T00:38:06;1.50;;;1.40;;
6207;SDS011;3137;51.550;7.060;2023-04-01T00:40:34;1.93;;;1.83;;
6207;SDS011;3137;51.550;7.060;2023-04-01T00:43:03;5.50;;;1.87;;
6207;SDS011;3137;51.550;7.060;2023-04-01T00:45:37;1.33;;;1.23;;
6207;SDS011;3137;51.550;7.060;2023-04-01T00:48:07;1.50;;;1.40;;
6207;SDS011;3137;51.550;7.060;2023-04-01T00:50:43;1.80;;;1.70;;
6207;SDS011;3137;51.550;7.060;2023-04-01T00:53:14;1.60;;;1.50;;
6207;SDS011;3137;51.550;7.060;2023-04-01T00:55:43;1.60;;;1.60;;
6207;SDS011;3137;51.550;7.060;2023-04-01T00:58:16;1.40;;;1.40;;
6207;SDS011;3137;51.550;7.060;2023-04-01T01:00:46;1.27;;;1.27;;
6207;SDS011;3137;51.550;7.060;2023-04-01T01:03:15;1.50;;;1.40;;
6207;SDS011;3137;51.550;7.060;2023-04-01T01:08:45;2.43;;;1.73;;
6207;SDS011;3137;51.550;7.060;2023-04-01T01:11:19;1.60;;;1.50;;
6207;SDS011;3137;51.550;7.060;2023-04-01T01:14:07;1.67;;;1.67;;
6207;SDS011;3137;51.550;7.060;2023-04-01T01:17:06;2.10;;;1.93;;
6207;SDS011;3137;51.550;7.060;2023-04-01T01:22:52;1.70;;;1.67;;
6207;SDS011;3137;51.550;7.060;2023-04-01T01:28:44;2.10;;;1.83;;
6207;SDS011;3137;51.550;7.060;2023-04-01T01:31:24;1.80;;;1.70;;
6207;SDS011;3137;51.550;7.060;2023-04-01T01:36:53;1.63;;;1.63;;
6207;SDS011;3137;51.550;7.060;2023-04-01T01:39:23;2.73;;;1.70;;
6207;SDS011;3137;51.550;7.060;2023-04-01T01:41:54;1.43;;;1.43;;
6207;SDS011;3137;51.550;7.060;2023-04-01T01:44:23;1.40;;;1.40;;
6207;SDS011;3137;51.550;7.060;2023-04-01T01:46:52;1.60;;;1.50;;
6207;SDS011;3137;51.550;7.060;2023-04-01T01:49:19;1.53;;;1.50;;
6207;SDS011;3137;51.550;7.060;2023-04-01T01:51:46;1.40;;;1.40;;
6207;SDS011;3137;51.550;7.060;2023-04-01T01:54:14;5.00;;;1.63;;
6207;SDS011;3137;51.550;7.060;2023-04-01T01:56:43;1.80;;;1.80;;
6207;SDS011;3137;51.550;7.060;2023-04-01T01:59:14;1.50;;;1.50;;
6207;SDS011;3137;51.550;7.060;2023-04-01T02:01:43;2.10;;;2.00;;
6207;SDS011;3137;51.550;7.060;2023-04-01T02:04:14;2.30;;;1.90;;
6207;SDS011;3137;51.550;7.060;2023-04-01T02:06:46;1.60;;;1.60;;
6207;SDS011;3137;51.550;7.060;2023-04-01T02:09:19;1.77;;;1.77;;
6207;SDS011;3137;51.550;7.060;2023-04-01T02:11:48;1.43;;;1.43;;
6207;SDS011;3137;51.550;7.060;2023-04-01T02:14:22;2.53;;;1.93;;
6207;SDS011;3137;51.550;7.060;2023-04-01T02:19:24;2.00;;;1.33;;
6207;SDS011;3137;51.550;7.060;2023-04-01T02:21:57;2.37;;;1.30;;
6207;SDS011;3137;51.550;7.060;2023-04-01T02:24:26;1.90;;;1.90;;
6207;SDS011;3137;51.550;7.060;2023-04-01T02:26:56;2.70;;;1.30;;
6207;SDS011;3137;51.550;7.060;2023-04-01T02:29:23;1.87;;;1.77;;
6207;SDS011;3137;51.550;7.060;2023-04-01T02:31:54;2.10;;;1.70;;
6207;SDS011;3137;51.550;7.060;2023-04-01T02:34:21;1.30;;;1.30;;
6207;SDS011;3137;51.550;7.060;2023-04-01T02:36:49;3.00;;;1.53;;
6207;SDS011;3137;51.550;7.060;2023-04-01T02:39:16;1.30;;;1.30;;
6207;SDS011;3137;51.550;7.060;2023-04-01T02:41:43;1.37;;;1.37;;
6207;SDS011;3137;51.550;7.060;2023-04-01T02:44:11;1.53;;;1.50;;
6207;SDS011;3137;51.550;7.060;2023-04-01T02:46:39;1.90;;;1.90;;
6207;SDS011;3137;51.550;7.060;2023-04-01T02:49:06;1.80;;;1.80;;
6207;SDS011;3137;51.550;7.060;2023-04-01T02:51:33;1.67;;;1.67;;
6207;SDS011;3137;51.550;7.060;2023-04-01T02:54:00;1.50;;;1.50;;
6207;SDS011;3137;51.550;7.060;2023-04-01T02:56:27;2.03;;;1.97;;
6207;SDS011;3137;51.550;7.060;2023-04-01T02:58:54;1.50;;;1.33;;
6207;SDS011;3137;51.550;7.060;2023-04-01T03:01:20;1.97;;;1.97;;
6207;SDS011;3137;51.550;7.060;2023-04-01T03:03:47;1.93;;;1.87;;
6207;SDS011;3137;51.550;7.060;2023-04-01T03:06:14;2.20;;;2.20;;
6207;SDS011;3137;51.550;7.060;2023-04-01T03:08:42;2.50;;;1.70;;
6207;SDS011;3137;51.550;7.060;2023-04-01T03:11:09;1.93;;;1.83;;
6207;SDS011;3137;51.550;7.060;2023-04-01T03:13:36;2.37;;;2.30;;
6207;SDS011;3137;51.550;7.060;2023-04-01T03:16:03;1.83;;;1.63;;
6207;SDS011;3137;51.550;7.060;2023-04-01T03:18:29;4.83;;;1.73;;
6207;SDS011;3137;51.550;7.060;2023-04-01T03:20:56;2.03;;;2.03;;
6207;SDS011;3137;51.550;7.060;2023-04-01T03:23:22;1.90;;;1.90;;
6207;SDS011;3137;51.550;7.060;2023-04-01T03:25:50;2.07;;;2.07;;
6207;SDS011;3137;51.550;7.060;2023-04-01T03:28:17;2.00;;;2.00;;
6207;SDS011;3137;51.550;7.060;2023-04-01T03:30:43;1.43;;;1.43;;
6207;SDS011;3137;51.550;7.060;2023-04-01T03:33:10;1.63;;;1.63;;
6207;SDS011;3137;51.550;7.060;2023-04-01T03:35:36;1.63;;;1.63;;
6207;SDS011;3137;51.550;7.060;2023-04-01T03:38:03;1.60;;;1.60;;
6207;SDS011;3137;51.550;7.060;2023-04-01T03:40:29;1.97;;;1.97;;
6207;SDS011;3137;51.550;7.060;2023-04-01T03:42:56;1.83;;;1.83;;
6207;SDS011;3137;51.550;7.060;2023-04-01T03:45:22;2.63;;;2.63;;
6207;SDS011;3137;51.550;7.060;2023-04-01T03:47:49;2.47;;;2.47;;
6207;SDS011;3137;51.550;7.060;2023-04-01T03:50:15;3.57;;;3.57;;
6207;SDS011;3137;51.550;7.060;2023-04-01T03:52:42;3.20;;;3.20;;
6207;SDS011;3137;51.550;7.060;2023-04-01T03:55:08;3.90;;;3.90;;
6207;SDS011;3137;51.550;7.060;2023-04-01T03:57:37;4.77;;;4.70;;
6207;SDS011;3137;51.550;7.060;2023-04-01T04:00:13;5.30;;;5.20;;
6207;SDS011;3137;51.550;7.060;2023-04-01T04:02:42;4.60;;;4.50;;
6207;SDS011;3137;51.550;7.060;2023-04-01T04:05:11;4.50;;;4.50;;
6207;SDS011;3137;51.550;7.060;2023-04-01T04:07:39;4.87;;;4.67;;
6207;SDS011;3137;51.550;7.060;2023-04-01T04:10:07;4.80;;;4.70;;
6207;SDS011;3137;51.550;7.060;2023-04-01T04:12:34;4.33;;;4.23;;
6207;SDS011;3137;51.550;7.060;2023-04-01T04:15:00;4.10;;;4.00;;
6207;SDS011;3137;51.550;7.060;2023-04-01T04:17:27;3.20;;;3.20;;
6207;SDS011;3137;51.550;7.060;2023-04-01T04:19:53;4.63;;;4.33;;
6207;SDS011;3137;51.550;7.060;2023-04-01T04:22:20;3.30;;;3.30;;
6207;SDS011;3137;51.550;7.060;2023-04-01T04:24:47;3.40;;;3.07;;
6207;SDS011;3137;51.550;7.060;2023-04-01T04:27:13;3.40;;;3.37;;
6207;SDS011;3137;51.550;7.060;2023-04-01T04:30:00;2.87;;;2.80;;
6207;SDS011;3137;51.550;7.060;2023-04-01T04:32:26;2.80;;;2.80;;
6207;SDS011;3137;51.550;7.060;2023-04-01T04:34:55;2.47;;;2.47;;
6207;SDS011;3137;51.550;7.060;2023-04-01T04:37:21;2.77;;;2.67;;
6207;SDS011;3137;51.550;7.060;2023-04-01T04:39:48;3.33;;;3.33;;
6207;SDS011;3137;51.550;7.060;2023-04-01T04:42:14;2.77;;;2.77;;
6207;SDS011;3137;51.550;7.060;2023-04-01T04:44:41;2.57;;;2.57;;
6207;SDS011;3137;51.550;7.060;2023-04-01T04:47:07;2.40;;;2.40;;
6207;SDS011;3137;51.550;7.060;2023-04-01T04:49:35;2.70;;;2.70;;
6207;SDS011;3137;51.550;7.060;2023-04-01T04:52:06;3.00;;;3.00;;
6207;SDS011;3137;51.550;7.060;2023-04-01T04:54:32;2.40;;;2.30;;
6207;SDS011;3137;51.550;7.060;2023-04-01T04:57:00;6.43;;;2.37;;
6207;SDS011;3137;51.550;7.060;2023-04-01T04:59:31;2.43;;;2.43;;
6207;SDS011;3137;51.550;7.060;2023-04-01T05:02:03;3.53;;;3.33;;
6207;SDS011;3137;51.550;7.060;2023-04-01T05:04:33;2.90;;;2.80;;
6207;SDS011;3137;51.550;7.060;2023-04-01T05:07:01;2.93;;;2.83;;
6207;SDS011;3137;51.550;7.060;2023-04-01T05:09:28;3.47;;;3.47;;
6207;SDS011;3137;51.550;7.060;2023-04-01T05:11:54;2.63;;;2.63;;
6207;SDS011;3137;51.550;7.060;2023-04-01T05:14:22;3.47;;;3.47;;
6207;SDS011;3137;51.550;7.060;2023-04-01T05:16:58;3.63;;;3.63;;
6207;SDS011;3137;51.550;7.060;2023-04-01T05:19:25;2.87;;;2.87;;
6207;SDS011;3137;51.550;7.060;2023-04-01T05:21:51;3.63;;;3.53;;
6207;SDS011;3137;51.550;7.060;2023-04-01T05:24:19;3.87;;;3.87;;
6207;SDS011;3137;51.550;7.060;2023-04-01T05:26:46;6.87;;;6.47;;
6207;SDS011;3137;51.550;7.060;2023-04-01T05:29:12;4.77;;;4.67;;
6207;SDS011;3137;51.550;7.060;2023-04-01T05:31:39;3.00;;;3.00;;
6207;SDS011;3137;51.550;7.060;2023-04-01T05:34:06;4.23;;;4.03;;
6207;SDS011;3137;51.550;7.060;2023-04-01T05:36:33;4.20;;;4.00;;
6207;SDS011;3137;51.550;7.060;2023-04-01T05:39:00;3.40;;;3.30;;
6207;SDS011;3137;51.550;7.060;2023-04-01T05:41:27;4.40;;;4.30;;
6207;SDS011;3137;51.550;7.060;2023-04-01T05:43:53;4.80;;;4.70;;
6207;SDS011;3137;51.550;7.060;2023-04-01T05:46:46;4.37;;;4.30;;
6207;SDS011;3137;51.550;7.060;2023-04-01T05:49:24;5.37;;;5.17;;
6207;SDS011;3137;51.550;7.060;2023-04-01T05:51:54;3.70;;;3.50;;
6207;SDS011;3137;51.550;7.060;2023-04-01T05:54:21;3.43;;;3.43;;
6207;SDS011;3137;51.550;7.060;2023-04-01T05:56:47;3.53;;;3.43;;
6207;SDS011;3137;51.550;7.060;2023-04-01T05:59:14;3.30;;;3.30;;
6207;SDS011;3137;51.550;7.060;2023-04-01T06:01:41;4.33;;;3.97;;
6207;SDS011;3137;51.550;7.060;2023-04-01T06:04:10;7.50;;;7.30;;
6207;SDS011;3137;51.550;7.060;2023-04-01T06:06:40;4.60;;;4.50;;
6207;SDS011;3137;51.550;7.060;2023-04-01T06:09:13;4.50;;;4.40;;
6207;SDS011;3137;51.550;7.060;2023-04-01T06:17:28;6.60;;;6.40;;
6207;SDS011;3137;51.550;7.060;2023-04-01T06:22:39;5.07;;;5.00;;
6207;SDS011;3137;51.550;7.060;2023-04-01T06:30:38;4.70;;;4.63;;
6207;SDS011;3137;51.550;7.060;2023-04-01T06:41:55;5.73;;;5.63;;
6207;SDS011;3137;51.550;7.060;2023-04-01T06:44:40;5.20;;;5.00;;
6207;SDS011;3137;51.550;7.060;2023-04-01T06:47:52;5.33;;;5.13;;
6207;SDS011;3137;51.550;7.060;2023-04-01T06:50:56;5.80;;;5.60;;
6207;SDS011;3137;51.550;7.060;2023-04-01T06:57:01;6.20;;;5.67;;
6207;SDS011;3137;51.550;7.060;2023-04-01T06:59:32;5.53;;;5.43;;
6207;SDS011;3137;51.550;7.060;2023-04-01T07:02:04;7.03;;;6.83;;
6207;SDS011;3137;51.550;7.060;2023-04-01T07:04:46;7.03;;;6.60;;
6207;SDS011;3137;51.550;7.060;2023-04-01T07:07:16;6.97;;;6.33;;
6207;SDS011;3137;51.550;7.060;2023-04-01T07:10:10;6.50;;;6.03;;
6207;SDS011;3137;51.550;7.060;2023-04-01T07:13:09;8.23;;;7.43;;
6207;SDS011;3137;51.550;7.060;2023-04-01T07:15:56;8.37;;;7.87;;
6207;SDS011;3137;51.550;7.060;2023-04-01T07:18:42;5.87;;;5.77;;
6207;SDS011;3137;51.550;7.060;2023-04-01T07:21:20;5.73;;;5.53;;
6207;SDS011;3137;51.550;7.060;2023-04-01T07:23:54;6.60;;;5.73;;
6207;SDS011;3137;51.550;7.060;2023-04-01T07:26:32;6.50;;;6.23;;
6207;SDS011;3137;51.550;7.060;2023-04-01T07:29:09;5.77;;;5.47;;
6207;SDS011;3137;51.550;7.060;2023-04-01T07:32:03;5.77;;;5.57;;
6207;SDS011;3137;51.550;7.060;2023-04-01T07:37:28;5.57;;;5.37;;
6207;SDS011;3137;51.550;7.060;2023-04-01T07:40:16;7.23;;;6.67;;
6207;SDS011;3137;51.550;7.060;2023-04-01T07:43:04;6.00;;;5.70;;
6207;SDS011;3137;51.550;7.060;2023-04-01T07:51:18;6.00;;;5.67;;
6207;SDS011;3137;51.550;7.060;2023-04-01T07:53:57;12.90;;;6.10;;
6207;SDS011;3137;51.550;7.060;2023-04-01T07:56:41;5.77;;;5.57;;
6207;SDS011;3137;51.550;7.060;2023-04-01T07:59:26;6.20;;;6.00;;
6207;SDS011;3137;51.550;7.060;2023-04-01T08:10:55;6.87;;;6.57;;
6207;SDS011;3137;51.550;7.060;2023-04-01T08:13:53;7.23;;;6.80;;
6207;SDS011;3137;51.550;7.060;2023-04-01T08:17:03;7.17;;;6.77;;
6207;SDS011;3137;51.550;7.060;2023-04-01T08:19:57;5.77;;;5.67;;
6207;SDS011;3137;51.550;7.060;2023-04-01T08:22:33;6.13;;;5.93;;
6207;SDS011;3137;51.550;7.060;2023-04-01T08:25:17;7.03;;;5.73;;
6207;SDS011;3137;51.550;7.060;2023-04-01T08:30:48;8.27;;;7.83;;
6207;SDS011;3137;51.550;7.060;2023-04-01T08:33:21;7.07;;;6.67;;
6207;SDS011;3137;51.550;7.060;2023-04-01T08:35:54;7.50;;;7.20;;
6207;SDS011;3137;51.550;7.060;2023-04-01T08:38:30;8.60;;;7.90;;
6207;SDS011;3137;51.550;7.060;2023-04-01T08:41:15;8.40;;;8.00;;
6207;SDS011;3137;51.550;7.060;2023-04-01T08:55:26;10.43;;;9.77;;
6207;SDS011;3137;51.550;7.060;2023-04-01T09:01:22;12.70;;;10.97;;
6207;SDS011;3137;51.550;7.060;2023-04-01T09:06:39;11.97;;;10.93;;
6207;SDS011;3137;51.550;7.060;2023-04-01T09:20:27;10.60;;;9.70;;
6207;SDS011;3137;51.550;7.060;2023-04-01T09:31:36;10.30;;;9.63;;
6207;SDS011;3137;51.550;7.060;2023-04-01T09:34:52;13.27;;;10.53;;
6207;SDS011;3137;51.550;7.060;2023-04-01T09:37:35;12.47;;;11.40;;
6207;SDS011;3137;51.550;7.060;2023-04-01T09:46:26;13.13;;;11.00;;
6207;SDS011;3137;51.550;7.060;2023-04-01T09:49:26;12.10;;;11.10;;
6207;SDS011;3137;51.550;7.060;2023-04-01T09:52:04;15.03;;;10.87;;
6207;SDS011;3137;51.550;7.060;2023-04-01T10:05:04;13.23;;;12.23;;
6207;SDS011;3137;51.550;7.060;2023-04-01T10:15:56;13.23;;;11.17;;
6207;SDS011;3137;51.550;7.060;2023-04-01T10:18:36;15.17;;;10.10;;
6207;SDS011;3137;51.550;7.060;2023-04-01T10:29:53;10.47;;;9.67;;
6207;SDS011;3137;51.550;7.060;2023-04-01T10:35:29;9.23;;;8.37;;
6207;SDS011;3137;51.550;7.060;2023-04-01T10:38:47;10.17;;;9.43;;
6207;SDS011;3137;51.550;7.060;2023-04-01T10:53:31;8.73;;;8.13;;
6207;SDS011;3137;51.550;7.060;2023-04-01T10:56:34;10.07;;;9.10;;
6207;SDS011;3137;51.550;7.060;2023-04-01T11:28:21;10.27;;;9.23;;
6207;SDS011;3137;51.550;7.060;2023-04-01T11:31:00;10.67;;;9.67;;
6207;SDS011;3137;51.550;7.060;2023-04-01T11:33:50;10.93;;;10.00;;
6207;SDS011;3137;51.550;7.060;2023-04-01T11:39:11;19.10;;;9.80;;
6207;SDS011;3137;51.550;7.060;2023-04-01T11:45:16;10.10;;;9.40;;
6207;SDS011;3137;51.550;7.060;2023-04-01T11:47:58;10.27;;;9.67;;
6207;SDS011;3137;51.550;7.060;2023-04-01T11:53:38;10.20;;;9.57;;
6207;SDS011;3137;51.550;7.060;2023-04-01T11:56:58;11.63;;;10.50;;
6207;SDS011;3137;51.550;7.060;2023-04-01T12:07:50;11.00;;;10.00;;
6207;SDS011;3137;51.550;7.060;2023-04-01T12:10:21;13.33;;;9.60;;
6207;SDS011;3137;51.550;7.060;2023-04-01T12:15:57;13.60;;;10.87;;
6207;SDS011;3137;51.550;7.060;2023-04-01T12:21:56;11.30;;;10.50;;
6207;SDS011;3137;51.550;7.060;2023-04-01T12:27:52;8.57;;;7.93;;
6207;SDS011;3137;51.550;7.060;2023-04-01T12:35:48;7.23;;;6.80;;
6207;SDS011;3137;51.550;7.060;2023-04-01T12:38:43;7.43;;;7.03;;
6207;SDS011;3137;51.550;7.060;2023-04-01T12:50:10;7.03;;;6.83;;
6207;SDS011;3137;51.550;7.060;2023-04-01T12:55:37;5.73;;;5.43;;
6207;SDS011;3137;51.550;7.060;2023-04-01T12:58:10;6.47;;;6.03;;
6207;SDS011;3137;51.550;7.060;2023-04-01T13:04:04;5.60;;;5.20;;
6207;SDS011;3137;51.550;7.060;2023-04-01T13:06:36;5.87;;;5.50;;
6207;SDS011;3137;51.550;7.060;2023-04-01T13:12:26;4.93;;;4.60;;
6207;SDS011;3137;51.550;7.060;2023-04-01T13:15:28;4.80;;;4.70;;
6207;SDS011;3137;51.550;7.060;2023-04-01T13:18:09;4.87;;;4.70;;
6207;SDS011;3137;51.550;7.060;2023-04-01T13:26:17;6.07;;;5.77;;
6207;SDS011;3137;51.550;7.060;2023-04-01T13:31:52;5.60;;;5.40;;
6207;SDS011;3137;51.550;7.060;2023-04-01T13:34:34;4.27;;;4.17;;
6207;SDS011;3137;51.550;7.060;2023-04-01T13:37:13;5.07;;;4.97;;
6207;SDS011;3137;51.550;7.060;2023-04-01T13:42:53;4.73;;;4.53;;
6207;SDS011;3137;51.550;7.060;2023-04-01T13:45:29;3.77;;;3.70;;
6207;SDS011;3137;51.550;7.060;2023-04-01T13:53:38;4.03;;;4.03;;
6207;SDS011;3137;51.550;7.060;2023-04-01T14:08:41;4.80;;;4.70;;
6207;SDS011;3137;51.550;7.060;2023-04-01T14:13:46;5.50;;;5.30;;
6207;SDS011;3137;51.550;7.060;2023-04-01T14:16:36;5.70;;;5.50;;
6207;SDS011;3137;51.550;7.060;2023-04-01T14:19:34;5.67;;;5.57;;
6207;SDS011;3137;51.550;7.060;2023-04-01T14:22:17;5.77;;;5.57;;
6207;SDS011;3137;51.550;7.060;2023-04-01T14:24:59;5.83;;;5.53;;
6207;SDS011;3137;51.550;7.060;2023-04-01T14:27:54;7.87;;;6.37;;
6207;SDS011;3137;51.550;7.060;2023-04-01T14:30:32;6.40;;;6.17;;
6207;SDS011;3137;51.550;7.060;2023-04-01T14:36:28;6.83;;;6.60;;
6207;SDS011;3137;51.550;7.060;2023-04-01T14:41:51;7.20;;;7.00;;
6207;SDS011;3137;51.550;7.060;2023-04-01T14:47:53;6.07;;;5.87;;
6207;SDS011;3137;51.550;7.060;2023-04-01T14:50:24;6.87;;;6.70;;
6207;SDS011;3137;51.550;7.060;2023-04-01T14:53:28;6.73;;;6.43;;
6207;SDS011;3137;51.550;7.060;2023-04-01T14:55:53;7.33;;;6.90;;
6207;SDS011;3137;51.550;7.060;2023-04-01T14:58:23;8.13;;;7.63;;
6207;SDS011;3137;51.550;7.060;2023-04-01T15:12:48;9.13;;;8.53;;
6207;SDS011;3137;51.550;7.060;2023-04-01T15:21:18;8.93;;;8.43;;
6207;SDS011;3137;51.550;7.060;2023-04-01T15:24:03;10.43;;;9.57;;
6207;SDS011;3137;51.550;7.060;2023-04-01T15:29:28;9.43;;;8.57;;
6207;SDS011;3137;51.550;7.060;2023-04-01T15:32:01;8.87;;;8.47;;
6207;SDS011;3137;51.550;7.060;2023-04-01T15:34:47;8.47;;;8.07;;
6207;SDS011;3137;51.550;7.060;2023-04-01T16:02:28;11.33;;;8.70;;
6207;SDS011;3137;51.550;7.060;2023-04-01T16:10:17;8.50;;;8.03;;
6207;SDS011;3137;51.550;7.060;2023-04-01T16:19:21;7.37;;;7.07;;
6207;SDS011;3137;51.550;7.060;2023-04-01T16:21:35;5.27;;;5.07;;
6207;SDS011;3137;51.550;7.060;2023-04-01T16:27:03;5.43;;;5.30;;
6207;SDS011;3137;51.550;7.060;2023-04-01T16:29:49;6.20;;;6.00;;
6207;SDS011;3137;51.550;7.060;2023-04-01T16:32:46;6.20;;;5.90;;
6207;SDS011;3137;51.550;7.060;2023-04-01T16:35:30;5.40;;;5.20;;
6207;SDS011;3137;51.550;7.060;2023-04-01T16:38:18;11.63;;;5.80;;
6207;SDS011;3137;51.550;7.060;2023-04-01T16:43:42;5.63;;;5.37;;
6207;SDS011;3137;51.550;7.060;2023-04-01T16:56:50;6.33;;;6.13;;
6207;SDS011;3137;51.550;7.060;2023-04-01T16:59:56;6.63;;;6.43;;
6207;SDS011;3137;51.550;7.060;2023-04-01T17:02:38;5.87;;;5.57;;
6207;SDS011;3137;51.550;7.060;2023-04-01T17:05:13;7.47;;;7.13;;
6207;SDS011;3137;51.550;7.060;2023-04-01T17:10:56;9.90;;;8.70;;
6207;SDS011;3137;51.550;7.060;2023-04-01T17:13:38;9.77;;;9.07;;
6207;SDS011;3137;51.550;7.060;2023-04-01T17:16:15;7.03;;;6.73;;
6207;SDS011;3137;51.550;7.060;2023-04-01T17:24:27;7.23;;;6.93;;
6207;SDS011;3137;51.550;7.060;2023-04-01T17:33:07;9.43;;;9.00;;
6207;SDS011;3137;51.550;7.060;2023-04-01T17:38:37;9.73;;;9.03;;
6207;SDS011;3137;51.550;7.060;2023-04-01T17:41:12;9.93;;;9.13;;
6207;SDS011;3137;51.550;7.060;2023-04-01T17:47:12;9.90;;;9.10;;
6207;SDS011;3137;51.550;7.060;2023-04-01T18:01:00;10.83;;;9.53;;
6207;SDS011;3137;51.550;7.060;2023-04-01T18:03:42;10.47;;;9.57;;
6207;SDS011;3137;51.550;7.060;2023-04-01T18:06:34;12.63;;;11.00;;
6207;SDS011;3137;51.550;7.060;2023-04-01T18:12:13;10.83;;;9.93;;
6207;SDS011;3137;51.550;7.060;2023-04-01T18:20:42;6.30;;;6.10;;
6207;SDS011;3137;51.550;7.060;2023-04-01T18:23:22;7.53;;;7.03;;
6207;SDS011;3137;51.550;7.060;2023-04-01T18:26:03;7.37;;;7.17;;
6207;SDS011;3137;51.550;7.060;2023-04-01T18:28:49;9.80;;;7.57;;
6207;SDS011;3137;51.550;7.060;2023-04-01T18:31:34;7.67;;;7.27;;
6207;SDS011;3137;51.550;7.060;2023-04-01T18:34:21;8.00;;;7.77;;
6207;SDS011;3137;51.550;7.060;2023-04-01T18:46:02;7.13;;;7.00;;
6207;SDS011;3137;51.550;7.060;2023-04-01T18:48:47;6.60;;;6.50;;
6207;SDS011;3137;51.550;7.060;2023-04-01T18:51:53;6.40;;;6.20;;
6207;SDS011;3137;51.550;7.060;2023-04-01T18:54:32;6.17;;;6.07;;
6207;SDS011;3137;51.550;7.060;2023-04-01T18:57:17;7.13;;;6.03;;
6207;SDS011;3137;51.550;7.060;2023-04-01T18:59:55;5.10;;;4.90;;
6207;SDS011;3137;51.550;7.060;2023-04-01T19:02:43;5.23;;;5.13;;
6207;SDS011;3137;51.550;7.060;2023-04-01T19:07:53;3.77;;;3.77;;
6207;SDS011;3137;51.550;7.060;2023-04-01T19:10:37;3.90;;;3.73;;
6207;SDS011;3137;51.550;7.060;2023-04-01T19:24:07;9.20;;;3.10;;
6207;SDS011;3137;51.550;7.060;2023-04-01T19:35:57;3.50;;;3.50;;
6207;SDS011;3137;51.550;7.060;2023-04-01T19:38:39;3.43;;;3.43;;
6207;SDS011;3137;51.550;7.060;2023-04-01T19:41:12;3.30;;;3.20;;
6207;SDS011;3137;51.550;7.060;2023-04-01T19:43:54;4.17;;;2.97;;
6207;SDS011;3137;51.550;7.060;2023-04-01T19:54:50;3.13;;;3.13;;
6207;SDS011;3137;51.550;7.060;2023-04-01T19:57:40;3.03;;;3.03;;
6207;SDS011;3137;51.550;7.060;2023-04-01T20:00:22;3.03;;;3.03;;
6207;SDS011;3137;51.550;7.060;2023-04-01T20:03:15;2.93;;;2.93;;
6207;SDS011;3137;51.550;7.060;2023-04-01T20:08:44;3.03;;;3.03;;
6207;SDS011;3137;51.550;7.060;2023-04-01T20:19:35;3.50;;;3.50;;
6207;SDS011;3137;51.550;7.060;2023-04-01T20:22:09;3.43;;;3.33;;
6207;SDS011;3137;51.550;7.060;2023-04-01T20:24:51;3.80;;;3.80;;
6207;SDS011;3137;51.550;7.060;2023-04-01T20:27:20;4.03;;;3.77;;
6207;SDS011;3137;51.550;7.060;2023-04-01T20:35:47;3.40;;;3.40;;
6207;SDS011;3137;51.550;7.060;2023-04-01T20:38:37;2.70;;;2.70;;
6207;SDS011;3137;51.550;7.060;2023-04-01T20:44:31;3.40;;;3.40;;
6207;SDS011;3137;51.550;7.060;2023-04-01T20:52:37;3.00;;;3.00;;
6207;SDS011;3137;51.550;7.060;2023-04-01T21:01:17;3.17;;;3.17;;
6207;SDS011;3137;51.550;7.060;2023-04-01T21:07:02;3.07;;;3.07;;
6207;SDS011;3137;51.550;7.060;2023-04-01T21:12:30;3.67;;;3.67;;
6207;SDS011;3137;51.550;7.060;2023-04-01T21:15:21;3.50;;;3.50;;
6207;SDS011;3137;51.550;7.060;2023-04-01T21:18:06;3.17;;;3.17;;
6207;SDS011;3137;51.550;7.060;2023-04-01T21:20:47;3.60;;;3.60;;
6207;SDS011;3137;51.550;7.060;2023-04-01T21:23:35;3.30;;;3.30;;
6207;SDS011;3137;51.550;7.060;2023-04-01T21:26:37;3.47;;;3.47;;
6207;SDS011;3137;51.550;7.060;2023-04-01T21:29:11;3.13;;;3.13;;
6207;SDS011;3137;51.550;7.060;2023-04-01T21:37:42;3.20;;;3.20;;
6207;SDS011;3137;51.550;7.060;2023-04-01T21:52:10;3.43;;;3.43;;
6207;SDS011;3137;51.550;7.060;2023-04-01T21:55:08;3.80;;;3.80;;
6207;SDS011;3137;51.550;7.060;2023-04-01T21:58:08;4.27;;;4.17;;
6207;SDS011;3137;51.550;7.060;2023-04-01T22:01:01;4.57;;;4.57;;
6207;SDS011;3137;51.550;7.060;2023-04-01T22:09:29;4.73;;;4.63;;
6207;SDS011;3137;51.550;7.060;2023-04-01T22:12:07;5.53;;;5.43;;
6207;SDS011;3137;51.550;7.060;2023-04-01T22:14:49;4.87;;;4.87;;
6207;SDS011;3137;51.550;7.060;2023-04-01T22:17:21;4.70;;;4.60;;
6207;SDS011;3137;51.550;7.060;2023-04-01T22:26:09;4.27;;;4.27;;
6207;SDS011;3137;51.550;7.060;2023-04-01T22:28:45;4.50;;;4.50;;
6207;SDS011;3137;51.550;7.060;2023-04-01T22:34:25;4.40;;;4.40;;
6207;SDS011;3137;51.550;7.060;2023-04-01T22:50:18;6.23;;;5.73;;
6207;SDS011;3137;51.550;7.060;2023-04-01T22:52:49;6.60;;;6.40;;
6207;SDS011;3137;51.550;7.060;2023-04-01T22:55:28;5.90;;;5.80;;
6207;SDS011;3137;51.550;7.060;2023-04-01T23:00:39;6.23;;;6.13;;
6207;SDS011;3137;51.550;7.060;2023-04-01T23:05:57;5.80;;;5.70;;
6207;SDS011;3137;51.550;7.060;2023-04-01T23:11:37;6.27;;;6.17;;
6207;SDS011;3137;51.550;7.060;2023-04-01T23:16:48;5.80;;;5.70;;
6207;SDS011;3137;51.550;7.060;2023-04-01T23:22:12;6.07;;;5.97;;
6207;SDS011;3137;51.550;7.060;2023-04-01T23:24:55;5.47;;;5.37;;
6207;SDS011;3137;51.550;7.060;2023-04-01T23:29:54;5.20;;;5.10;;
6207;SDS011;3137;51.550;7.060;2023-04-01T23:32:23;5.70;;;5.60;;
6207;SDS011;3137;51.550;7.060;2023-04-01T23:34:53;4.87;;;4.77;;
6207;SDS011;3137;51.550;7.060;2023-04-01T23:37:23;5.00;;;4.90;;
6207;SDS011;3137;51.550;7.060;2023-04-01T23:39:54;5.30;;;5.20;;
6207;SDS011;3137;51.550;7.060;2023-04-01T23:42:24;5.67;;;5.57;;
6207;SDS011;3137;51.550;7.060;2023-04-01T23:44:54;5.63;;;5.53;;
6207;SDS011;3137;51.550;7.060;2023-04-01T23:47:27;5.73;;;5.67;;
6207;SDS011;3137;51.550;7.060;2023-04-01T23:50:13;5.07;;;5.07;;
6207;SDS011;3137;51.550;7.060;2023-04-01T23:52:46;6.13;;;6.03;;
6207;SDS011;3137;51.550;7.060;2023-04-01T23:55:17;5.83;;;5.73;;
6207;SDS011;3137;51.550;7.060;2023-04-01T23:58:09;5.13;;;5.03;;
